Time;durP1;ratioP1;P1;durP2;ratioP2;P2;SDS_P1;SDS_P2;PMS_P1;PMS_P2;Temp;Humidity;BMP_temperature;BMP_pressure;BME280_temperature;BME280_humidity;BME280_pressure;Samples;Min_cycle;Max_cycle;Signal;HPM_P1;HPM_P2
2021/01/11 00:00:30;;;;;;;5.97;3.92;;;;;;;18.65;50.20;102090.63;5018137;28;20041;-68
2021/01/11 00:02:55;;;;;;;5.90;3.67;;;;;;;18.66;50.35;102088.88;5031539;28;20044;-68
2021/01/11 00:05:21;;;;;;;6.72;4.07;;;;;;;18.64;50.21;102083.59;5019741;28;20482;-68
2021/01/11 00:07:46;;;;;;;7.22;4.10;;;;;;;18.63;50.36;102080.97;5034352;28;20472;-77
2021/01/11 00:10:12;;;;;;;5.65;3.97;;;;;;;18.61;50.30;102075.69;5035247;28;20026;-77
2021/01/11 00:12:39;;;;;;;5.13;3.65;;;;;;;18.64;50.13;102091.47;5034319;28;20475;-77
2021/01/11 00:15:07;;;;;;;4.20;3.13;;;;;;;18.61;50.33;102085.28;5034903;28;20387;-77
2021/01/11 00:17:32;;;;;;;5.72;3.65;;;;;;;18.60;50.12;102086.16;5001362;28;20033;-77
2021/01/11 00:19:58;;;;;;;5.30;4.03;;;;;;;18.56;49.99;102070.34;5000841;28;20502;-77
2021/01/11 00:22:23;;;;;;;3.75;3.25;;;;;;;18.62;49.88;102080.06;5021908;28;20040;-68
2021/01/11 00:24:48;;;;;;;4.72;3.25;;;;;;;18.61;50.13;102075.69;4994812;28;20057;-68
2021/01/11 00:27:14;;;;;;;3.90;3.15;;;;;;;18.59;50.04;102077.41;5015147;28;20052;-68
2021/01/11 00:29:39;;;;;;;4.50;3.83;;;;;;;18.57;50.10;102072.09;5035235;28;20061;-68
2021/01/11 00:32:04;;;;;;;3.47;3.10;;;;;;;18.59;49.97;102079.16;5016805;28;20128;-67
2021/01/11 00:34:30;;;;;;;4.13;3.08;;;;;;;18.57;49.92;102071.22;5022848;28;20029;-67
2021/01/11 00:36:58;;;;;;;4.78;3.70;;;;;;;18.58;49.94;102078.25;5007589;28;20017;-67
2021/01/11 00:39:27;;;;;;;4.47;3.20;;;;;;;18.57;50.04;102074.72;5031362;28;20076;-68
2021/01/11 00:42:00;;;;;;;3.78;3.38;;;;;;;18.56;49.93;102074.75;5017445;28;20029;-68
2021/01/11 00:44:30;;;;;;;4.20;3.50;;;;;;;18.51;50.12;102066.81;5016393;28;20028;-68
2021/01/11 00:47:00;;;;;;;4.28;2.80;;;;;;;18.50;49.96;102056.28;5032350;28;20048;-68
2021/01/11 00:49:26;;;;;;;3.67;3.33;;;;;;;18.55;49.97;102065.13;5013010;28;20049;-67
2021/01/11 00:51:52;;;;;;;5.05;3.55;;;;;;;18.54;50.03;102069.47;5024242;28;20091;-68
2021/01/11 00:54:17;;;;;;;5.28;3.35;;;;;;;18.52;49.98;102051.97;5016022;28;20476;-68
2021/01/11 00:56:42;;;;;;;5.32;3.30;;;;;;;18.51;49.85;102050.19;5000306;28;20456;-69
2021/01/11 00:59:08;;;;;;;4.90;3.58;;;;;;;18.52;49.81;102047.59;5015206;28;20033;-67
2021/01/11 01:01:33;;;;;;;3.90;3.38;;;;;;;18.51;49.74;102047.59;5031824;28;20040;-68
2021/01/11 01:03:59;;;;;;;4.70;3.28;;;;;;;18.52;49.78;102052.84;5015284;28;20041;-67
2021/01/11 01:06:26;;;;;;;5.63;3.33;;;;;;;18.53;49.93;102048.50;5031806;28;20067;-67
2021/01/11 01:08:51;;;;;;;4.43;3.17;;;;;;;18.52;49.83;102051.97;5017068;28;20044;-68
2021/01/11 01:11:16;;;;;;;3.70;2.88;;;;;;;18.54;49.56;102052.88;5032571;28;20025;-67
2021/01/11 01:13:43;;;;;;;5.53;3.47;;;;;;;18.46;49.59;102042.25;5014839;28;20468;-68
2021/01/11 01:16:09;;;;;;;5.18;3.45;;;;;;;18.44;49.75;102035.25;5017191;28;20515;-67
2021/01/11 01:18:34;;;;;;;4.40;3.00;;;;;;;18.47;49.94;102043.16;5016849;28;20030;-68
2021/01/11 01:21:00;;;;;;;3.95;3.05;;;;;;;18.45;49.92;102032.66;5030431;28;20040;-68
2021/01/11 01:23:25;;;;;;;4.05;3.20;;;;;;;18.47;49.91;102033.56;5019387;28;20030;-68
2021/01/11 01:25:51;;;;;;;6.13;3.00;;;;;;;18.48;49.54;102023.97;5032325;28;20033;-67
2021/01/11 01:28:16;;;;;;;3.47;2.72;;;;;;;18.46;49.67;102009.94;5014256;28;20036;-67
2021/01/11 01:30:41;;;;;;;5.03;3.50;;;;;;;18.49;49.56;102017.88;5001129;28;20120;-68
2021/01/11 01:33:07;;;;;;;4.70;3.30;;;;;;;18.44;49.82;102004.69;5031071;28;20053;-68
2021/01/11 01:35:32;;;;;;;3.03;2.38;;;;;;;18.44;49.97;102012.56;5003802;28;20087;-68
2021/01/11 01:37:58;;;;;;;5.00;2.88;;;;;;;18.46;49.69;102023.06;4985032;28;20072;-68
2021/01/11 01:40:24;;;;;;;3.28;2.90;;;;;;;18.46;49.94;102016.06;5013872;28;20083;-67
2021/01/11 01:42:51;;;;;;;4.18;2.60;;;;;;;18.46;49.81;102015.19;5031069;28;20030;-67
2021/01/11 01:45:17;;;;;;;4.88;3.08;;;;;;;18.42;49.80;102016.03;5014006;28;20021;-68
2021/01/11 01:47:43;;;;;;;4.03;3.22;;;;;;;18.42;49.80;102019.53;5015621;28;20498;-67
2021/01/11 01:50:10;;;;;;;3.42;2.83;;;;;;;18.38;49.71;102006.38;5011140;28;20037;-68
2021/01/11 01:52:38;;;;;;;4.03;2.83;;;;;;;18.44;49.83;102020.41;5015061;28;20031;-68
2021/01/11 01:55:11;;;;;;;4.15;2.90;;;;;;;18.38;49.76;102017.72;5018978;28;20037;-68
2021/01/11 01:57:36;;;;;;;3.35;2.42;;;;;;;18.39;49.77;102014.25;5032505;28;20443;-67
2021/01/11 02:00:04;;;;;;;3.70;3.20;;;;;;;18.44;49.41;102024.75;5031306;28;20130;-68
2021/01/11 02:02:29;;;;;;;3.78;2.88;;;;;;;18.43;49.70;102025.66;5031732;28;20033;-68
2021/01/11 02:04:55;;;;;;;3.95;2.90;;;;;;;18.42;49.68;102023.88;4997432;28;20060;-68
2021/01/11 02:07:39;;;;;;;3.90;2.58;;;;;;;18.39;49.46;102014.25;5024716;28;20052;-69
2021/01/11 02:10:44;;;;;;;3.92;2.40;;;;;;;18.42;49.70;102021.28;5047412;28;20039;-68
2021/01/11 02:13:12;;;;;;;3.13;2.58;;;;;;;18.43;49.52;102009.94;5048753;28;20041;-67
2021/01/11 02:15:46;;;;;;;3.95;2.72;;;;;;;18.41;49.49;101999.44;5044301;28;20450;-67
2021/01/11 02:18:18;;;;;;;2.92;2.63;;;;;;;18.39;49.59;102008.13;5046589;28;20024;-68
2021/01/11 02:21:21;;;;;;;3.85;2.72;;;;;;;18.38;49.54;102012.47;5047014;28;20033;-68
2021/01/11 02:24:03;;;;;;;4.60;2.60;;;;;;;18.38;49.72;102008.97;5049302;28;20070;-69
2021/01/11 02:27:19;;;;;;;3.20;2.38;;;;;;;18.37;49.64;102018.56;5051967;28;20029;-68
2021/01/11 02:30:27;;;;;;;4.05;3.03;;;;;;;18.37;49.33;102026.44;5034492;28;20052;-68
2021/01/11 02:33:05;;;;;;;4.25;2.97;;;;;;;18.36;49.46;102013.31;5045179;28;20502;-68
2021/01/11 02:35:47;;;;;;;3.50;2.42;;;;;;;18.34;49.38;102013.28;5065260;28;20021;-68
2021/01/11 02:38:15;;;;;;;3.60;2.40;;;;;;;18.34;49.59;102023.75;5048752;28;20029;-68
2021/01/11 02:40:41;;;;;;;3.08;2.20;;;;;;;18.33;49.49;102024.63;5052482;28;20044;-68
2021/01/11 02:43:06;;;;;;;3.78;2.55;;;;;;;18.31;49.74;102023.72;5056822;28;20028;-70
2021/01/11 02:45:32;;;;;;;3.05;2.17;;;;;;;18.29;49.49;102014.09;5057167;28;20040;-77
2021/01/11 02:48:16;;;;;;;4.05;2.80;;;;;;;18.33;49.46;102014.16;5059742;28;20040;-76
2021/01/11 02:50:52;;;;;;;2.25;1.88;;;;;;;18.31;49.62;102008.00;5055035;28;20029;-76
2021/01/11 02:53:28;;;;;;;3.30;2.58;;;;;;;18.32;49.47;102006.25;5056024;28;20036;-77
2021/01/11 02:56:03;;;;;;;5.05;2.70;;;;;;;18.31;49.47;102000.13;5053743;28;20028;-75
2021/01/11 02:58:55;;;;;;;2.53;2.05;;;;;;;18.33;49.37;102003.66;5047546;28;20029;-76
2021/01/11 03:01:21;;;;;;;4.05;1.90;;;;;;;18.32;49.28;101991.44;5051029;28;20052;-67
2021/01/11 03:03:48;;;;;;;3.25;2.15;;;;;;;18.29;49.46;102001.00;5041269;28;20043;-67
2021/01/11 03:06:14;;;;;;;3.05;2.47;;;;;;;18.33;49.16;102021.13;5043683;28;20500;-68
2021/01/11 03:08:39;;;;;;;2.63;2.13;;;;;;;18.30;49.36;102015.84;5015064;28;20033;-67
2021/01/11 03:11:05;;;;;;;3.65;2.65;;;;;;;18.31;49.43;102021.09;4996771;28;20026;-67
2021/01/11 03:13:30;;;;;;;2.30;1.88;;;;;;;18.31;49.30;102017.59;5015096;28;20037;-67
2021/01/11 03:15:56;;;;;;;4.75;2.20;;;;;;;18.28;49.30;102013.22;5018876;28;20021;-67
2021/01/11 03:18:21;;;;;;;3.33;2.28;;;;;;;18.29;49.42;102012.38;5012420;28;20090;-67
2021/01/11 03:20:47;;;;;;;2.88;2.03;;;;;;;18.22;49.11;101997.41;4984964;28;20022;-67
2021/01/11 03:23:12;;;;;;;2.85;2.13;;;;;;;18.27;49.17;101989.63;5019799;28;20468;-67
2021/01/11 03:25:40;;;;;;;3.22;1.95;;;;;;;18.26;49.47;101990.47;5031976;28;20456;-67
2021/01/11 03:28:05;;;;;;;4.30;2.28;;;;;;;18.26;49.29;101988.75;5004421;28;20042;-67
2021/01/11 03:30:31;;;;;;;3.40;2.03;;;;;;;18.25;49.32;101986.09;5017452;28;20391;-67
2021/01/11 03:32:56;;;;;;;3.38;2.10;;;;;;;18.28;49.26;101980.91;5016522;28;20026;-66
2021/01/11 03:35:21;;;;;;;3.35;2.08;;;;;;;18.27;49.32;101981.78;5033778;28;20032;-76
2021/01/11 03:37:47;;;;;;;3.10;2.50;;;;;;;18.27;49.56;101976.53;5018149;28;20032;-76
2021/01/11 03:40:12;;;;;;;4.07;2.55;;;;;;;18.25;49.11;101966.03;5017667;28;20034;-76
2021/01/11 03:42:41;;;;;;;2.28;1.98;;;;;;;18.24;49.11;101966.88;5017981;28;20061;-76
2021/01/11 03:45:08;;;;;;;3.38;1.73;;;;;;;18.24;49.31;101960.78;5035831;28;20030;-76
2021/01/11 03:47:34;;;;;;;2.63;1.83;;;;;;;18.22;49.40;101955.50;5032330;28;20026;-77
2021/01/11 03:50:00;;;;;;;2.45;2.10;;;;;;;18.20;49.23;101954.59;5035689;28;20502;-76
2021/01/11 03:52:25;;;;;;;3.00;2.22;;;;;;;18.22;49.46;101952.91;5017874;28;20419;-76
2021/01/11 03:54:51;;;;;;;2.63;2.08;;;;;;;18.18;49.25;101941.50;4998661;28;20130;-76
2021/01/11 03:57:17;;;;;;;2.90;2.08;;;;;;;18.19;49.34;101935.41;5011066;28;20053;-76
2021/01/11 03:59:42;;;;;;;2.55;2.08;;;;;;;18.21;49.31;101931.06;5002062;28;20103;-76
2021/01/11 04:02:08;;;;;;;4.93;2.05;;;;;;;18.20;49.14;101929.31;5033916;28;20033;-76
2021/01/11 04:04:33;;;;;;;2.47;2.15;;;;;;;18.21;49.46;101930.19;5017504;28;20102;-76
2021/01/11 04:06:58;;;;;;;2.95;1.88;;;;;;;18.18;49.19;101915.31;5034681;28;20464;-76
2021/01/11 04:09:25;;;;;;;2.55;1.80;;;;;;;18.19;49.31;101924.94;5016996;28;20566;-76
2021/01/11 04:11:51;;;;;;;3.70;2.08;;;;;;;18.17;49.14;101915.31;5000431;28;20060;-76
2021/01/11 04:14:16;;;;;;;2.50;1.83;;;;;;;18.18;49.49;101915.31;5034892;28;20044;-76
2021/01/11 04:16:43;;;;;;;2.63;1.90;;;;;;;18.19;49.29;101910.94;5034476;28;20060;-76
2021/01/11 04:19:09;;;;;;;3.30;2.42;;;;;;;18.25;49.06;101913.66;5034689;28;20041;-76
2021/01/11 04:21:34;;;;;;;2.50;1.90;;;;;;;18.40;48.52;101899.91;5034347;28;20039;-76
2021/01/11 04:24:00;;;;;;;2.28;1.55;;;;;;;18.44;48.33;101899.94;5030949;28;20036;-76
2021/01/11 04:26:25;;;;;;;3.67;2.25;;;;;;;18.42;48.42;101898.19;5004363;28;20033;-76
2021/01/11 04:28:50;;;;;;;2.28;1.98;;;;;;;18.44;48.30;101893.81;5030085;28;20460;-77
2021/01/11 04:31:17;;;;;;;2.40;1.73;;;;;;;18.59;48.44;101909.75;5020335;28;20530;-76
2021/01/11 04:33:42;;;;;;;4.55;2.38;;;;;;;18.55;48.32;101898.34;5033951;28;20080;-76
2021/01/11 04:36:07;;;;;;;1.73;1.50;;;;;;;18.55;48.58;101914.06;5017166;28;20404;-76
2021/01/11 04:38:33;;;;;;;2.25;1.70;;;;;;;18.62;48.44;101909.78;5033895;28;20424;-76
2021/01/11 04:41:03;;;;;;;3.15;1.80;;;;;;;18.68;47.91;101909.88;5034309;28;20506;-76
2021/01/11 04:43:32;;;;;;;1.95;1.65;;;;;;;18.66;48.22;101906.34;5016491;28;20037;-76
2021/01/11 04:45:58;;;;;;;3.03;1.75;;;;;;;18.61;48.30;101892.31;5021598;28;20118;-76
2021/01/11 04:48:24;;;;;;;3.08;1.73;;;;;;;18.75;48.11;101895.09;4999935;28;20396;-76
2021/01/11 04:50:49;;;;;;;2.53;1.70;;;;;;;18.72;48.22;101893.31;5017281;28;20033;-76
2021/01/11 04:53:17;;;;;;;2.50;1.80;;;;;;;18.66;48.43;101890.63;5016071;28;20605;-76
2021/01/11 04:55:44;;;;;;;2.42;2.03;;;;;;;18.68;48.15;101888.91;4995378;28;20030;-76
2021/01/11 04:58:11;;;;;;;2.60;1.58;;;;;;;18.75;47.97;101887.22;5017714;28;20043;-76
2021/01/11 05:00:38;;;;;;;2.28;1.58;;;;;;;18.74;48.13;101891.56;5016509;28;20033;-76
2021/01/11 05:03:06;;;;;;;2.15;1.90;;;;;;;18.72;48.12;101882.81;5034981;28;20045;-76
2021/01/11 05:05:33;;;;;;;2.15;1.33;;;;;;;18.80;47.98;101886.41;5033347;28;20080;-76
2021/01/11 05:07:59;;;;;;;2.05;1.65;;;;;;;18.82;47.97;101882.06;5035326;28;20519;-76
2021/01/11 05:10:29;;;;;;;2.33;1.50;;;;;;;18.79;48.27;101883.78;5019203;28;20033;-77
2021/01/11 05:13:13;;;;;;;1.95;1.30;;;;;;;18.79;48.12;101876.78;5033828;28;20033;-76
2021/01/11 05:15:39;;;;;;;2.40;1.83;;;;;;;18.86;48.05;101869.84;5028219;28;20495;-76
2021/01/11 05:18:15;;;;;;;1.85;1.30;;;;;;;18.81;48.14;101875.06;5021770;28;20538;-76
2021/01/11 05:20:41;;;;;;;4.60;1.80;;;;;;;18.77;48.29;101864.53;5013739;28;20376;-76
2021/01/11 05:23:09;;;;;;;3.15;1.50;;;;;;;18.86;48.14;101867.22;5033291;28;20045;-76
2021/01/11 05:25:36;;;;;;;2.40;1.55;;;;;;;18.85;48.04;101850.63;5033617;28;20376;-77
2021/01/11 05:28:11;;;;;;;2.42;1.50;;;;;;;18.81;48.10;101851.50;4999465;28;20026;-76
2021/01/11 05:30:37;;;;;;;2.72;1.10;;;;;;;18.76;48.33;101845.31;5033188;28;20067;-76
2021/01/11 05:33:09;;;;;;;2.05;1.50;;;;;;;18.67;48.45;101841.72;5033190;28;20038;-76
2021/01/11 05:35:36;;;;;;;2.67;1.63;;;;;;;18.68;48.68;101851.34;4998411;28;20053;-76
2021/01/11 05:38:12;;;;;;;1.95;1.50;;;;;;;18.65;48.70;101846.94;5033264;28;20030;-76
2021/01/11 05:40:38;;;;;;;3.53;1.75;;;;;;;18.64;48.62;101845.19;5032790;28;20533;-75
2021/01/11 05:43:03;;;;;;;2.90;2.13;;;;;;;18.68;48.66;101840.88;5030712;28;20116;-73
2021/01/11 05:45:33;;;;;;;3.08;2.30;;;;;;;18.69;48.50;101834.78;5023968;28;20028;-74
2021/01/11 05:47:58;;;;;;;3.10;1.55;;;;;;;18.82;48.21;101849.75;5032136;28;20175;-74
2021/01/11 05:50:50;;;;;;;3.58;1.48;;;;;;;18.84;48.16;101834.88;5029460;28;20057;-76
2021/01/11 05:53:26;;;;;;;3.40;1.35;;;;;;;18.85;48.04;101837.53;5029175;28;20037;-76
2021/01/11 05:55:55;;;;;;;2.20;1.35;;;;;;;18.93;47.94;101827.13;5030794;28;20029;-76
2021/01/11 05:58:22;;;;;;;2.88;1.38;;;;;;;19.00;47.72;101815.81;4999280;28;20048;-75
2021/01/11 06:00:48;;;;;;;1.60;1.10;;;;;;;18.98;47.93;101814.94;5028363;28;20029;-75
2021/01/11 06:03:15;;;;;;;2.60;1.23;;;;;;;18.91;48.12;101803.53;5014432;28;20033;-75
2021/01/11 06:05:41;;;;;;;3.20;1.63;;;;;;;18.94;48.04;101810.53;5033202;28;20037;-75
2021/01/11 06:08:09;;;;;;;1.70;1.27;;;;;;;18.99;47.83;101800.06;5046568;28;20045;-75
2021/01/11 06:10:35;;;;;;;2.28;1.33;;;;;;;18.96;47.90;101800.03;5047281;28;20056;-77
2021/01/11 06:13:06;;;;;;;2.90;1.20;;;;;;;18.91;47.74;101795.66;5048140;28;20387;-66
2021/01/11 06:15:33;;;;;;;2.20;1.20;;;;;;;18.96;48.02;101787.81;5050511;28;20036;-66
2021/01/11 06:17:58;;;;;;;2.92;1.85;;;;;;;18.97;47.89;101778.22;5050875;28;20017;-66
2021/01/11 06:20:26;;;;;;;3.58;1.55;;;;;;;18.96;48.03;101786.94;5050574;28;20361;-66
2021/01/11 06:22:51;;;;;;;5.75;1.90;;;;;;;18.98;47.95;101785.22;5048758;28;20107;-66
2021/01/11 06:25:17;;;;;;;5.65;2.10;;;;;;;19.05;47.76;101781.78;5052873;28;20104;-70
2021/01/11 06:27:51;;;;;;;3.63;2.33;;;;;;;19.03;47.56;101792.25;5049889;28;20033;-68
2021/01/11 06:30:38;;;;;;;3.55;1.90;;;;;;;19.00;48.08;101796.59;5058700;28;20039;-66
2021/01/11 06:33:08;;;;;;;3.45;1.95;;;;;;;19.08;47.88;101816.78;5045743;28;20022;-67
2021/01/11 06:35:34;;;;;;;6.45;2.17;;;;;;;19.07;47.98;101816.75;5045322;28;20032;-66
2021/01/11 06:38:22;;;;;;;2.95;1.75;;;;;;;19.02;47.97;101794.88;5050264;28;20099;-66
2021/01/11 06:41:02;;;;;;;2.63;1.75;;;;;;;19.09;48.15;101796.66;5041489;28;20029;-66
2021/01/11 06:43:40;;;;;;;4.05;2.65;;;;;;;19.08;48.09;101802.78;5047948;28;20036;-76
2021/01/11 06:46:06;;;;;;;4.85;1.90;;;;;;;19.05;48.18;101797.53;5055402;28;20028;-75
2021/01/11 06:48:33;;;;;;;4.68;1.92;;;;;;;19.10;48.14;101778.31;5052286;28;20124;-75
2021/01/11 06:51:08;;;;;;;4.38;2.08;;;;;;;19.11;47.98;101771.34;5044926;28;20033;-75
2021/01/11 06:53:33;;;;;;;3.30;1.95;;;;;;;19.08;48.04;101787.06;5053077;28;20040;-74
2021/01/11 06:56:08;;;;;;;3.78;2.30;;;;;;;19.11;48.08;101781.81;5053817;28;20041;-75
2021/01/11 06:58:36;;;;;;;3.55;2.17;;;;;;;19.12;47.88;101776.59;5058577;28;20494;-74
2021/01/11 07:01:08;;;;;;;3.45;1.70;;;;;;;19.08;48.00;101766.97;5055256;28;20043;-74
2021/01/11 07:03:49;;;;;;;3.55;1.63;;;;;;;19.12;47.88;101773.09;5052195;28;20086;-67
2021/01/11 07:06:40;;;;;;;4.70;2.10;;;;;;;19.15;47.92;101783.59;5048926;28;20030;-67
2021/01/11 07:09:08;;;;;;;3.58;2.15;;;;;;;19.13;47.77;101788.84;5035081;28;20091;-67
2021/01/11 07:11:45;;;;;;;5.50;1.75;;;;;;;19.11;47.93;101787.06;5036416;28;20029;-66
2021/01/11 07:14:13;;;;;;;4.18;1.77;;;;;;;19.16;47.78;101778.38;5017171;28;20746;-67
2021/01/11 07:16:50;;;;;;;2.47;1.73;;;;;;;19.14;47.85;101773.97;5024280;28;20028;-67
2021/01/11 07:19:36;;;;;;;3.97;2.05;;;;;;;19.12;48.02;101779.22;5015887;28;20484;-67
2021/01/11 07:22:04;;;;;;;4.72;1.70;;;;;;;19.20;47.88;101779.28;5036265;28;20037;-67
2021/01/11 07:24:29;;;;;;;4.80;2.28;;;;;;;19.11;47.76;101761.72;5036675;28;20041;-67
2021/01/11 07:26:55;;;;;;;3.55;1.50;;;;;;;19.12;47.99;101759.97;5035796;28;20025;-67
2021/01/11 07:29:21;;;;;;;4.25;1.73;;;;;;;19.18;47.70;101754.78;5038169;28;20040;-75
2021/01/11 07:31:48;;;;;;;4.00;2.03;;;;;;;19.20;47.97;101750.44;5018303;28;20341;-75
2021/01/11 07:34:15;;;;;;;3.85;1.65;;;;;;;19.15;47.66;101753.03;5017493;28;20108;-67
2021/01/11 07:36:58;;;;;;;3.40;1.55;;;;;;;19.16;47.65;101748.66;5016828;28;20018;-67
2021/01/11 07:39:29;;;;;;;3.78;1.42;;;;;;;19.26;47.77;101756.59;5016030;28;20116;-66
2021/01/11 07:42:00;;;;;;;2.40;1.50;;;;;;;19.25;47.58;101749.59;5018321;28;20091;-67
2021/01/11 07:44:34;;;;;;;2.42;1.52;;;;;;;19.20;47.67;101753.06;5037662;28;20040;-66
2021/01/11 07:47:10;;;;;;;2.58;1.48;;;;;;;19.21;47.61;101750.41;5022799;28;20021;-67
2021/01/11 07:49:38;;;;;;;4.88;1.88;;;;;;;19.23;47.70;101756.56;5043799;28;20052;-66
2021/01/11 07:52:11;;;;;;;4.28;2.05;;;;;;;19.33;47.71;101760.16;5024480;28;20037;-66
2021/01/11 07:54:38;;;;;;;4.70;1.75;;;;;;;19.29;47.28;101753.13;5034112;28;20030;-66
2021/01/11 07:57:14;;;;;;;3.22;1.75;;;;;;;19.19;47.64;101753.94;5012034;28;20037;-66
2021/01/11 07:59:42;;;;;;;2.30;1.48;;;;;;;19.20;47.57;101750.44;5009676;28;20157;-66
2021/01/11 08:02:11;;;;;;;3.10;1.65;;;;;;;19.19;47.64;101743.44;5027268;28;20033;-66
2021/01/11 08:04:38;;;;;;;4.32;1.67;;;;;;;19.15;47.53;101733.78;5014992;28;20017;-66
2021/01/11 08:07:08;;;;;;;3.00;1.90;;;;;;;19.16;47.79;101733.81;4994050;28;20135;-65
2021/01/11 08:09:35;;;;;;;1.75;1.30;;;;;;;19.20;47.46;101735.59;5050674;28;20510;-65
2021/01/11 08:12:15;;;;;;;2.88;1.30;;;;;;;19.19;47.51;101736.44;5046613;28;20368;-66
2021/01/11 08:14:41;;;;;;;2.70;1.73;;;;;;;19.20;47.46;101742.56;5051627;28;20033;-65
2021/01/11 08:17:13;;;;;;;2.92;1.80;;;;;;;19.20;47.47;101734.72;5053790;28;20021;-75
2021/01/11 08:19:41;;;;;;;2.97;1.55;;;;;;;19.18;47.75;101741.69;5055192;28;20055;-75
2021/01/11 08:22:09;;;;;;;3.03;1.50;;;;;;;19.17;47.37;101737.31;5054666;28;20044;-75
2021/01/11 08:24:35;;;;;;;3.10;1.55;;;;;;;19.19;47.43;101732.94;5066330;28;20055;-75
2021/01/11 08:27:06;;;;;;;2.50;1.30;;;;;;;19.20;47.33;101732.09;5054666;28;20099;-75
2021/01/11 08:29:36;;;;;;;3.08;1.70;;;;;;;19.18;47.13;101718.97;5053687;28;20024;-75
2021/01/11 08:32:04;;;;;;;3.40;1.45;;;;;;;19.20;47.25;101714.63;5053372;28;20505;-75
2021/01/11 08:34:29;;;;;;;2.20;1.50;;;;;;;19.24;47.20;101718.09;5048003;28;20032;-75
2021/01/11 08:36:55;;;;;;;3.28;1.58;;;;;;;19.18;47.28;101711.09;5054892;28;20515;-75
2021/01/11 08:39:20;;;;;;;2.20;1.40;;;;;;;19.22;47.29;101727.69;5020019;28;20133;-75
2021/01/11 08:41:53;;;;;;;2.33;1.48;;;;;;;19.23;47.29;101732.06;5050993;28;20082;-75
2021/01/11 08:44:33;;;;;;;2.15;1.35;;;;;;;19.21;47.31;101739.09;5047864;28;20500;-75
2021/01/11 08:47:04;;;;;;;2.65;1.65;;;;;;;19.20;47.21;101734.72;5063394;28;20476;-76
2021/01/11 08:49:30;;;;;;;2.22;1.38;;;;;;;19.25;47.14;101738.22;5053325;28;20040;-67
2021/01/11 08:52:10;;;;;;;1.63;1.15;;;;;;;19.20;47.20;101732.09;5021068;28;20034;-66
2021/01/11 08:54:38;;;;;;;1.80;1.33;;;;;;;19.22;47.29;101744.31;5053189;28;20487;-76
2021/01/11 08:57:12;;;;;;;2.58;1.40;;;;;;;19.21;46.93;101734.69;5055346;28;20115;-76
2021/01/11 08:59:49;;;;;;;2.20;1.52;;;;;;;19.24;47.15;101739.09;5052715;28;20087;-75
2021/01/11 09:02:28;;;;;;;3.90;1.27;;;;;;;19.23;47.20;101740.81;5054903;28;20045;-67
2021/01/11 09:04:56;;;;;;;2.55;1.40;;;;;;;19.26;47.22;101726.88;5063930;28;20056;-67
2021/01/11 09:07:27;;;;;;;2.22;1.35;;;;;;;19.26;47.24;101724.25;5035779;28;20050;-67
2021/01/11 09:09:52;;;;;;;3.20;1.60;;;;;;;19.24;47.51;101725.97;5014552;28;20036;-67
2021/01/11 09:12:31;;;;;;;3.50;1.50;;;;;;;19.31;47.24;101730.41;5024621;28;20121;-67
2021/01/11 09:14:56;;;;;;;1.80;1.17;;;;;;;19.32;46.97;101732.16;5014282;28;20454;-67
2021/01/11 09:17:30;;;;;;;2.47;1.20;;;;;;;19.29;46.97;101732.13;5015416;28;20033;-67
2021/01/11 09:19:59;;;;;;;1.25;0.90;;;;;;;19.30;47.10;101733.88;5013747;28;20439;-67
2021/01/11 09:22:33;;;;;;;2.17;1.30;;;;;;;19.31;47.05;101745.25;5018848;28;20041;-66
2021/01/11 09:25:00;;;;;;;1.98;1.20;;;;;;;19.26;47.20;101750.47;5006329;28;20033;-67
2021/01/11 09:27:25;;;;;;;2.00;1.13;;;;;;;19.20;47.16;101743.47;5026894;28;20092;-76
2021/01/11 09:29:52;;;;;;;2.58;1.20;;;;;;;19.19;47.32;101746.06;5008957;28;20029;-76
2021/01/11 09:32:20;;;;;;;1.70;1.17;;;;;;;19.10;47.23;101736.38;5016701;28;20427;-77
2021/01/11 09:34:46;;;;;;;2.75;1.42;;;;;;;19.11;47.40;101746.00;5029097;28;20033;-76
2021/01/11 09:37:13;;;;;;;3.85;1.42;;;;;;;19.08;47.38;101747.75;5021432;28;20026;-76
2021/01/11 09:39:38;;;;;;;2.25;1.23;;;;;;;19.05;47.47;101743.34;5032498;28;20086;-76
2021/01/11 09:42:04;;;;;;;2.47;1.38;;;;;;;19.00;47.55;101736.31;5027111;28;20029;-76
2021/01/11 09:44:30;;;;;;;1.90;1.20;;;;;;;19.02;47.50;101748.56;5032313;28;20022;-77
2021/01/11 09:46:57;;;;;;;2.42;1.20;;;;;;;19.00;47.67;101755.53;5033522;28;20406;-76
2021/01/11 09:49:23;;;;;;;2.63;1.23;;;;;;;18.99;47.66;101752.91;5021069;28;20395;-76
2021/01/11 09:51:48;;;;;;;4.78;1.45;;;;;;;18.96;47.31;101755.47;5025086;28;20033;-76
2021/01/11 09:54:14;;;;;;;2.42;1.23;;;;;;;18.96;47.65;101755.47;5021507;28;20029;-76
2021/01/11 09:56:39;;;;;;;2.10;1.08;;;;;;;18.92;47.50;101754.59;5015787;28;20033;-76
2021/01/11 09:59:06;;;;;;;2.38;1.30;;;;;;;18.91;47.78;101748.50;5010238;28;20100;-76
2021/01/11 10:01:42;;;;;;;2.03;1.60;;;;;;;18.88;47.60;101750.19;5016486;28;20128;-76
2021/01/11 10:04:08;;;;;;;2.10;1.00;;;;;;;18.90;47.64;101748.47;5008198;28;20029;-76
2021/01/11 10:06:48;;;;;;;3.00;1.10;;;;;;;18.86;47.41;101731.84;5025581;28;20491;-76
2021/01/11 10:09:16;;;;;;;2.92;1.15;;;;;;;18.87;47.74;101736.22;5065079;28;20037;-76
2021/01/11 10:11:44;;;;;;;2.45;1.55;;;;;;;18.85;47.62;101735.31;5044820;28;20021;-76
2021/01/11 10:14:12;;;;;;;4.95;1.77;;;;;;;18.82;47.48;101729.19;5049950;28;20418;-66
2021/01/11 10:16:42;;;;;;;3.03;1.20;;;;;;;18.82;47.44;101726.59;5041857;28;20049;-67
2021/01/11 10:19:09;;;;;;;2.90;1.65;;;;;;;18.82;47.47;101722.22;5040302;28;20554;-67
2021/01/11 10:21:39;;;;;;;2.13;1.13;;;;;;;18.81;47.44;101724.81;5024203;28;20052;-67
2021/01/11 10:24:05;;;;;;;2.00;1.30;;;;;;;18.82;47.50;101716.97;5050595;28;20051;-67
2021/01/11 10:26:31;;;;;;;2.88;1.40;;;;;;;18.81;47.27;101709.09;5043600;28;20043;-67
2021/01/11 10:28:56;;;;;;;2.28;1.00;;;;;;;18.80;47.28;101702.97;5047015;28;20029;-67
2021/01/11 10:31:22;;;;;;;2.05;1.50;;;;;;;18.79;47.30;101690.75;5031295;28;20482;-67
2021/01/11 10:33:48;;;;;;;3.50;1.00;;;;;;;18.77;47.37;101694.22;5048683;28;20115;-68
2021/01/11 10:36:14;;;;;;;2.42;1.45;;;;;;;18.78;47.46;101682.88;5049327;28;20021;-67
2021/01/11 10:38:44;;;;;;;3.42;2.22;;;;;;;18.75;47.31;101691.56;5050115;28;20032;-67
2021/01/11 10:41:15;;;;;;;2.53;0.90;;;;;;;18.73;47.36;101677.59;5031626;28;20049;-67
2021/01/11 10:43:40;;;;;;;2.88;1.13;;;;;;;18.76;47.27;101676.72;5049525;28;20475;-67
2021/01/11 10:46:05;;;;;;;3.28;1.58;;;;;;;18.72;47.21;101672.31;5046343;28;20043;-67
2021/01/11 10:48:31;;;;;;;2.20;1.10;;;;;;;18.71;47.31;101663.59;5045497;28;20039;-67
2021/01/11 10:50:56;;;;;;;1.98;1.20;;;;;;;18.75;47.31;101659.25;5046088;28;20060;-67
2021/01/11 10:53:22;;;;;;;3.20;1.55;;;;;;;18.74;47.10;101652.25;5048660;28;20029;-67
2021/01/11 10:55:47;;;;;;;2.13;1.15;;;;;;;18.71;47.31;101649.59;5049517;28;20025;-67
2021/01/11 10:58:12;;;;;;;2.40;1.38;;;;;;;18.69;47.39;101647.00;5045197;28;20033;-67
2021/01/11 11:00:38;;;;;;;4.13;1.67;;;;;;;18.69;47.33;101649.63;5050957;28;20047;-67
2021/01/11 11:03:07;;;;;;;2.22;1.00;;;;;;;18.70;47.17;101626.91;5046616;28;20037;-67
2021/01/11 11:05:33;;;;;;;1.52;1.10;;;;;;;18.66;47.34;101614.66;5046305;28;20525;-67
2021/01/11 11:07:58;;;;;;;1.67;1.10;;;;;;;18.66;47.19;101605.06;5058261;28;20057;-67
2021/01/11 11:10:24;;;;;;;3.03;1.63;;;;;;;18.64;47.09;101606.78;5028512;28;20368;-67
2021/01/11 11:12:50;;;;;;;3.95;1.50;;;;;;;18.68;47.18;101618.19;5044551;28;20089;-68
2021/01/11 11:15:16;;;;;;;2.47;1.13;;;;;;;18.67;47.30;101606.81;5034210;28;20040;-67
2021/01/11 11:17:41;;;;;;;2.15;1.30;;;;;;;18.68;46.99;101605.94;5041835;28;20029;-67
2021/01/11 11:20:08;;;;;;;2.30;1.50;;;;;;;18.72;47.31;101602.47;5038053;28;20038;-67
2021/01/11 11:22:33;;;;;;;2.60;1.52;;;;;;;18.71;47.13;101599.84;5050413;28;20079;-66
2021/01/11 11:25:05;;;;;;;2.00;1.35;;;;;;;18.69;46.92;101594.59;5042565;28;20094;-66
2021/01/11 11:27:31;;;;;;;1.70;1.10;;;;;;;18.69;47.06;101607.72;5048268;28;20043;-67
2021/01/11 11:29:57;;;;;;;3.25;1.40;;;;;;;18.67;46.95;101598.97;5055304;28;20060;-69
2021/01/11 11:32:22;;;;;;;2.72;1.40;;;;;;;18.68;47.21;101592.84;5033464;28;20104;-68